Time;durP1;ratioP1;P1;durP2;ratioP2;P2;SDS_P1;SDS_P2;PMS_P1;PMS_P2;Temp;Humidity;BMP_temperature;BMP_pressure;BME280_temperature;BME280_humidity;BME280_pressure;Samples;Min_cycle;Max_cycle;Signal;HPM_P1;HPM_P2
2023/11/25 00:00:09;;;;;;;7.32;0.73;;;3.30;99.90;;;;;;6015218;23;20094;-87
2023/11/25 00:02:38;;;;;;;5.63;0.60;;;3.30;99.90;;;;;;5991935;23;20348;-85
2023/11/25 00:05:06;;;;;;;6.38;0.85;;;3.30;99.90;;;;;;5991810;23;20019;-87
2023/11/25 00:07:33;;;;;;;3.20;0.50;;;3.40;99.90;;;;;;6029387;23;20019;-87
2023/11/25 00:10:00;;;;;;;2.80;0.40;;;3.40;99.90;;;;;;6015861;23;20107;-88
2023/11/25 00:12:28;;;;;;;1.20;0.30;;;3.30;99.90;;;;;;5992501;23;20035;-87
2023/11/25 00:14:55;;;;;;;2.40;0.20;;;3.30;99.90;;;;;;5987308;23;20043;-89
2023/11/25 00:17:24;;;;;;;3.03;0.37;;;3.30;99.90;;;;;;6062402;23;20085;-88
2023/11/25 00:19:55;;;;;;;2.33;0.30;;;3.30;99.90;;;;;;6048224;23;20034;-89
2023/11/25 00:22:23;;;;;;;2.20;0.40;;;3.40;99.90;;;;;;6073009;23;20050;-90
2023/11/25 00:24:52;;;;;;;3.65;0.45;;;3.40;99.90;;;;;;6049060;23;20201;-91
2023/11/25 00:27:19;;;;;;;5.93;0.40;;;3.40;99.90;;;;;;6049168;23;20533;-91
2023/11/25 00:29:47;;;;;;;4.72;0.60;;;3.40;99.90;;;;;;6025770;23;20078;-91
2023/11/25 00:32:16;;;;;;;8.70;1.00;;;3.50;99.90;;;;;;6026562;23;20022;-90
2023/11/25 00:34:51;;;;;;;5.40;0.70;;;3.50;99.90;;;;;;6096876;23;20065;-92
2023/11/25 00:37:22;;;;;;;4.93;1.47;;;3.50;99.90;;;;;;6025921;23;20030;-92
2023/11/25 00:39:51;;;;;;;11.67;0.97;;;3.50;99.90;;;;;;6049063;23;20076;-91
2023/11/25 00:42:21;;;;;;;5.90;1.20;;;3.50;99.90;;;;;;6072426;23;20077;-89
2023/11/25 00:44:51;;;;;;;4.72;0.93;;;3.50;99.90;;;;;;6049033;23;20022;-90
2023/11/25 00:47:19;;;;;;;7.18;0.73;;;3.50;99.90;;;;;;6049311;23;20116;-91
2023/11/25 00:49:48;;;;;;;5.87;0.80;;;3.50;99.90;;;;;;6049079;23;20495;-90
2023/11/25 00:52:17;;;;;;;3.63;0.75;;;3.50;99.90;;;;;;6025960;23;20030;-91
2023/11/25 00:54:46;;;;;;;4.27;0.50;;;3.60;99.90;;;;;;6049021;23;20071;-91
2023/11/25 00:57:13;;;;;;;7.72;0.90;;;3.60;99.90;;;;;;6048610;23;20023;-91
2023/11/25 00:59:42;;;;;;;4.25;0.90;;;3.60;99.90;;;;;;6048650;23;20022;-90
2023/11/25 01:02:10;;;;;;;5.63;0.75;;;3.60;99.90;;;;;;6025608;23;20472;-90
2023/11/25 01:04:40;;;;;;;4.65;0.70;;;3.60;99.90;;;;;;6048636;23;20022;-91
2023/11/25 01:07:09;;;;;;;6.20;0.70;;;3.70;99.90;;;;;;6049421;23;20019;-90
2023/11/25 01:09:38;;;;;;;4.00;0.50;;;3.70;99.90;;;;;;6049145;23;20028;-91
2023/11/25 01:12:07;;;;;;;8.60;0.70;;;3.70;99.90;;;;;;6096457;23;20381;-91
2023/11/25 01:14:35;;;;;;;6.72;0.80;;;3.80;99.90;;;;;;6072257;23;20497;-91
2023/11/25 01:17:04;;;;;;;7.15;1.20;;;3.90;99.90;;;;;;6048702;23;20042;-90
2023/11/25 01:19:32;;;;;;;6.07;0.68;;;3.90;99.90;;;;;;6072504;23;20037;-91
2023/11/25 01:22:03;;;;;;;6.43;0.90;;;3.90;99.90;;;;;;6048788;23;20014;-91
2023/11/25 01:24:31;;;;;;;5.28;0.80;;;4.00;99.90;;;;;;6048738;23;20024;-91
2023/11/25 01:26:58;;;;;;;7.15;0.98;;;3.90;99.90;;;;;;6095778;23;20109;-91
2023/11/25 01:29:26;;;;;;;7.97;0.73;;;3.90;99.90;;;;;;6048457;23;20018;-91
2023/11/25 01:31:53;;;;;;;7.05;1.13;;;3.90;99.90;;;;;;6048695;23;20029;-91
2023/11/25 01:34:21;;;;;;;6.32;0.98;;;3.90;99.90;;;;;;6048633;23;20018;-91
2023/11/25 01:36:52;;;;;;;4.78;0.65;;;3.80;99.90;;;;;;6048483;23;20054;-91
2023/11/25 01:39:19;;;;;;;6.90;1.17;;;3.80;99.90;;;;;;6048469;23;20026;-91
2023/11/25 01:41:46;;;;;;;7.55;0.80;;;3.80;99.90;;;;;;6048635;23;20023;-91
2023/11/25 01:44:17;;;;;;;6.28;1.08;;;3.80;99.90;;;;;;6048977;23;20029;-91
2023/11/25 01:46:47;;;;;;;6.07;1.23;;;3.80;99.90;;;;;;6049103;23;20026;-91
2023/11/25 01:49:15;;;;;;;5.15;0.70;;;3.70;99.90;;;;;;6048846;23;20425;-91
2023/11/25 01:51:45;;;;;;;7.88;0.88;;;3.80;99.90;;;;;;6096811;23;20479;-91
2023/11/25 01:54:14;;;;;;;6.57;0.70;;;3.80;99.90;;;;;;6048634;23;20109;-92
2023/11/25 01:56:51;;;;;;;3.90;0.70;;;3.70;99.90;;;;;;6096319;23;20025;-91
2023/11/25 01:59:20;;;;;;;10.90;1.13;;;3.70;99.90;;;;;;6048454;23;20027;-91
2023/11/25 02:01:47;;;;;;;10.93;0.98;;;3.80;99.90;;;;;;6048243;23;20070;-91
2023/11/25 02:04:17;;;;;;;4.70;1.20;;;3.80;99.90;;;;;;6026239;23;20018;-91
2023/11/25 02:06:47;;;;;;;6.60;1.13;;;3.80;99.90;;;;;;6048761;23;20520;-91
2023/11/25 02:09:17;;;;;;;5.28;1.00;;;3.80;99.90;;;;;;6048405;23;20022;-91
2023/11/25 02:12:07;;;;;;;7.88;1.20;;;3.80;99.90;;;;;;6048749;23;20023;-91
2023/11/25 02:14:37;;;;;;;8.25;0.95;;;3.80;99.90;;;;;;6048540;23;20109;-91
2023/11/25 02:17:05;;;;;;;3.45;0.70;;;3.80;99.90;;;;;;6048519;23;20015;-91
2023/11/25 02:19:36;;;;;;;11.23;1.08;;;3.80;99.90;;;;;;6048480;23;20050;-91
2023/11/25 02:22:08;;;;;;;7.75;0.88;;;3.80;99.90;;;;;;6035212;23;20023;-91
2023/11/25 02:24:38;;;;;;;13.00;1.13;;;3.80;99.90;;;;;;6190568;23;20021;-92
2023/11/25 02:27:07;;;;;;;10.57;1.42;;;3.90;99.90;;;;;;6190525;23;20021;-92
2023/11/25 02:29:35;;;;;;;10.05;1.42;;;3.90;99.90;;;;;;6142245;23;20056;-91
2023/11/25 02:32:05;;;;;;;3.83;0.47;;;4.00;99.90;;;;;;6165822;23;20028;-92
2023/11/25 02:34:34;;;;;;;7.93;0.77;;;4.00;99.90;;;;;;6190849;23;20083;-91
2023/11/25 02:37:01;;;;;;;5.47;0.82;;;3.90;99.90;;;;;;6166272;23;20024;-92
2023/11/25 02:39:29;;;;;;;3.22;0.52;;;3.90;99.90;;;;;;6192389;23;20025;-92
2023/11/25 02:41:59;;;;;;;6.95;1.08;;;3.90;99.90;;;;;;6167779;23;20020;-91
2023/11/25 02:44:29;;;;;;;3.53;1.48;;;3.90;99.90;;;;;;6162193;23;20017;-91
2023/11/25 02:46:56;;;;;;;3.30;0.55;;;3.90;99.90;;;;;;6186421;23;20025;-91
2023/11/25 02:49:25;;;;;;;7.45;0.88;;;3.90;99.90;;;;;;6192688;23;20051;-92
2023/11/25 02:51:55;;;;;;;2.67;0.30;;;3.90;99.90;;;;;;6143491;23;20021;-91
2023/11/25 02:54:23;;;;;;;4.20;0.38;;;3.90;99.90;;;;;;6162722;23;20108;-92
2023/11/25 02:56:50;;;;;;;6.20;0.52;;;3.90;99.90;;;;;;6185924;23;20027;-92
2023/11/25 02:59:22;;;;;;;3.70;0.50;;;3.90;99.90;;;;;;6192782;23;20082;-92
2023/11/25 03:01:51;;;;;;;5.55;1.27;;;3.90;99.90;;;;;;6192519;23;20020;-91
2023/11/25 03:04:22;;;;;;;6.80;0.40;;;3.90;99.90;;;;;;6192218;23;20043;-92
2023/11/25 03:06:51;;;;;;;4.18;0.68;;;3.80;99.90;;;;;;6192017;23;20073;-92
2023/11/25 03:09:19;;;;;;;3.13;0.30;;;3.80;99.90;;;;;;6192951;23;20020;-92
2023/11/25 03:11:46;;;;;;;3.50;0.25;;;3.70;99.90;;;;;;6138548;23;20027;-92
2023/11/25 03:14:19;;;;;;;2.60;0.50;;;3.70;99.90;;;;;;6165120;23;20065;-92
2023/11/25 03:16:47;;;;;;;1.85;0.38;;;3.70;99.90;;;;;;6168250;23;20031;-92
2023/11/25 03:19:19;;;;;;;3.38;0.20;;;3.60;99.90;;;;;;6192652;23;20103;-92
2023/11/25 03:21:46;;;;;;;3.42;0.40;;;3.60;99.90;;;;;;6166865;23;20025;-92
2023/11/25 03:24:13;;;;;;;2.92;0.30;;;3.50;99.90;;;;;;6151576;23;20017;-92
2023/11/25 03:26:44;;;;;;;1.73;0.20;;;3.50;99.90;;;;;;6199775;23;20099;-92
2023/11/25 03:29:11;;;;;;;2.75;0.45;;;3.50;99.90;;;;;;6193475;23;20016;-92
2023/11/25 03:31:51;;;;;;;1.55;0.30;;;3.50;99.90;;;;;;6169705;23;20131;-92
2023/11/25 03:34:21;;;;;;;2.40;0.30;;;3.40;99.90;;;;;;6192202;23;20016;-92
2023/11/25 03:36:51;;;;;;;2.50;0.20;;;3.40;99.90;;;;;;6192685;23;20515;-92
2023/11/25 03:39:20;;;;;;;5.28;0.93;;;3.40;99.90;;;;;;6191503;23;20020;-93
2023/11/25 03:41:47;;;;;;;4.13;0.65;;;3.40;99.90;;;;;;6162445;23;20428;-92
2023/11/25 03:44:16;;;;;;;3.92;0.50;;;3.40;99.90;;;;;;6165613;23;20017;-92
2023/11/25 03:46:44;;;;;;;6.13;0.40;;;3.40;99.90;;;;;;6137409;23;20021;-92
2023/11/25 03:49:12;;;;;;;4.85;0.80;;;3.40;99.90;;;;;;6164660;23;20040;-91
2023/11/25 03:51:39;;;;;;;2.63;0.50;;;3.40;99.90;;;;;;6191703;23;20125;-92
2023/11/25 03:54:06;;;;;;;5.55;0.63;;;3.40;99.90;;;;;;6164166;23;20053;-92
2023/11/25 03:56:34;;;;;;;3.47;0.68;;;3.40;99.90;;;;;;6191608;23;20055;-92
2023/11/25 03:59:01;;;;;;;1.80;0.35;;;3.40;99.90;;;;;;6138564;23;20104;-92
2023/11/25 04:01:28;;;;;;;3.45;0.43;;;3.40;99.90;;;;;;6191413;23;20024;-92
2023/11/25 04:03:56;;;;;;;5.03;1.38;;;3.40;99.90;;;;;;6162272;23;20079;-92
2023/11/25 04:06:28;;;;;;;5.57;0.50;;;3.40;99.90;;;;;;6166772;23;20439;-92
2023/11/25 04:08:58;;;;;;;2.10;0.50;;;3.40;99.90;;;;;;6191404;23;20375;-92
2023/11/25 04:11:25;;;;;;;4.45;0.70;;;3.40;99.90;;;;;;6186579;23;20359;-93
2023/11/25 04:13:57;;;;;;;4.63;0.52;;;3.50;99.90;;;;;;6167114;23;20021;-92
2023/11/25 04:16:24;;;;;;;6.25;0.77;;;3.50;99.90;;;;;;6191642;23;20016;-93
2023/11/25 04:18:54;;;;;;;11.00;0.95;;;3.60;99.90;;;;;;6167150;23;20447;-92
2023/11/25 04:21:22;;;;;;;6.57;0.93;;;3.70;99.90;;;;;;6166730;23;20024;-92
2023/11/25 04:23:55;;;;;;;7.90;0.93;;;3.70;99.90;;;;;;6161324;23;20037;-92
2023/11/25 04:26:27;;;;;;;3.65;0.65;;;3.80;99.90;;;;;;6126205;23;20440;-93
2023/11/25 04:28:55;;;;;;;4.53;0.70;;;3.80;99.90;;;;;;6185997;23;20013;-91
2023/11/25 04:31:26;;;;;;;5.70;0.80;;;3.90;99.90;;;;;;6191225;23;20027;-92
2023/11/25 04:33:54;;;;;;;3.50;0.40;;;4.00;99.90;;;;;;6191241;23;20020;-93
2023/11/25 04:36:21;;;;;;;3.58;0.95;;;4.00;99.90;;;;;;6166988;23;20052;-93
2023/11/25 04:38:56;;;;;;;3.72;0.30;;;4.10;99.90;;;;;;6166401;23;20020;-93
2023/11/25 04:41:23;;;;;;;1.38;0.30;;;4.20;99.90;;;;;;6166350;23;20016;-93
2023/11/25 04:43:56;;;;;;;3.25;0.60;;;4.20;99.90;;;;;;6162931;23;20059;-92
2023/11/25 04:46:23;;;;;;;1.95;0.63;;;4.20;99.90;;;;;;6149762;23;20017;-93
2023/11/25 04:48:55;;;;;;;4.05;0.30;;;4.30;99.90;;;;;;6186760;23;20024;-92
2023/11/25 04:51:26;;;;;;;3.95;0.60;;;4.30;99.90;;;;;;6186888;23;20021;-92
2023/11/25 04:53:53;;;;;;;6.18;0.70;;;4.30;99.90;;;;;;6186766;23;20021;-93
2023/11/25 04:56:22;;;;;;;3.45;0.40;;;4.30;99.90;;;;;;6166043;23;20024;-92
2023/11/25 04:58:51;;;;;;;4.05;0.30;;;4.20;99.90;;;;;;6191017;23;20043;-90
2023/11/25 05:01:21;;;;;;;3.17;0.35;;;4.20;99.90;;;;;;6190597;23;20050;-89
2023/11/25 05:03:54;;;;;;;2.47;0.28;;;4.20;99.90;;;;;;6141803;23;20025;-90
2023/11/25 05:06:21;;;;;;;2.40;0.47;;;4.10;99.90;;;;;;6191314;23;20021;-90
2023/11/25 05:08:51;;;;;;;3.50;0.30;;;4.10;99.90;;;;;;6186607;23;20017;-90
2023/11/25 05:11:18;;;;;;;5.20;0.30;;;4.10;99.90;;;;;;6166222;23;20020;-90
2023/11/25 05:13:45;;;;;;;2.58;0.60;;;4.10;99.90;;;;;;6190611;23;20074;-90
2023/11/25 05:16:12;;;;;;;4.35;0.70;;;4.10;99.90;;;;;;6191049;23;20020;-90
2023/11/25 05:18:40;;;;;;;2.47;0.40;;;4.00;99.90;;;;;;6160584;23;20027;-90
2023/11/25 05:21:09;;;;;;;2.55;0.20;;;4.00;99.90;;;;;;6162656;23;20025;-90
2023/11/25 05:23:36;;;;;;;0.80;0.10;;;3.90;99.90;;;;;;6190934;23;20439;-90
2023/11/25 05:26:05;;;;;;;1.67;0.30;;;3.90;99.90;;;;;;6190977;23;20021;-91
2023/11/25 05:28:33;;;;;;;3.42;0.43;;;3.80;99.90;;;;;;6191014;23;20406;-91
2023/11/25 05:31:01;;;;;;;2.00;0.30;;;3.70;99.90;;;;;;6190678;23;20071;-91
2023/11/25 05:33:30;;;;;;;3.67;0.40;;;3.70;99.90;;;;;;6167040;23;20075;-91
2023/11/25 05:36:04;;;;;;;2.03;0.20;;;3.70;99.90;;;;;;6162549;23;20028;-92
2023/11/25 05:38:34;;;;;;;4.35;0.35;;;3.60;99.90;;;;;;6166230;23;20465;-92
2023/11/25 05:41:04;;;;;;;2.47;0.30;;;3.60;99.90;;;;;;6166098;23;20027;-91
2023/11/25 05:43:31;;;;;;;4.68;0.30;;;3.50;99.90;;;;;;6191204;23;20032;-92
2023/11/25 05:45:58;;;;;;;2.70;0.20;;;3.50;99.90;;;;;;6161009;23;20360;-91
2023/11/25 05:48:27;;;;;;;2.20;0.20;;;3.40;99.90;;;;;;6179369;23;20020;-92
2023/11/25 05:50:54;;;;;;;0.85;0.20;;;3.40;99.90;;;;;;6166141;23;20071;-91
2023/11/25 05:53:21;;;;;;;1.27;0.20;;;3.40;99.90;;;;;;6190759;23;20079;-91
2023/11/25 05:55:50;;;;;;;2.20;0.35;;;3.40;99.90;;;;;;6166147;23;20020;-91
2023/11/25 05:58:17;;;;;;;4.63;0.77;;;3.40;99.90;;;;;;6190273;23;20020;-90
2023/11/25 06:00:54;;;;;;;3.50;0.40;;;3.40;99.90;;;;;;6166956;23;20502;-91
2023/11/25 06:03:23;;;;;;;1.95;0.30;;;3.40;99.90;;;;;;6190072;23;20466;-91
2023/11/25 06:05:50;;;;;;;2.13;0.63;;;3.30;99.90;;;;;;6190483;23;20020;-91
2023/11/25 06:08:20;;;;;;;7.57;0.63;;;3.30;99.90;;;;;;6190313;23;20043;-91
2023/11/25 06:10:52;;;;;;;5.30;0.90;;;3.30;99.90;;;;;;6190269;23;20079;-92
2023/11/25 06:13:27;;;;;;;5.70;0.75;;;3.30;99.90;;;;;;6166954;23;20027;-92
2023/11/25 06:15:56;;;;;;;4.47;0.90;;;3.30;99.90;;;;;;6168168;23;20024;-91
2023/11/25 06:18:29;;;;;;;3.63;0.55;;;3.30;99.90;;;;;;6162654;23;20075;-91
2023/11/25 06:21:02;;;;;;;3.05;0.73;;;3.30;99.90;;;;;;6138331;23;20032;-91
2023/11/25 06:23:32;;;;;;;2.53;0.40;;;3.30;99.90;;;;;;6156691;23;20017;-92
2023/11/25 06:26:00;;;;;;;4.13;0.50;;;3.30;99.90;;;;;;6134118;23;20071;-91
2023/11/25 06:28:31;;;;;;;3.90;0.45;;;3.40;99.90;;;;;;6162392;23;20025;-92
2023/11/25 06:31:06;;;;;;;5.13;0.77;;;3.50;99.90;;;;;;6162971;23;20024;-92
2023/11/25 06:33:33;;;;;;;1.85;0.40;;;3.60;99.90;;;;;;6138707;23;20021;-91
2023/11/25 06:36:03;;;;;;;4.68;0.77;;;3.60;99.90;;;;;;6162678;23;20453;-91
2023/11/25 06:38:33;;;;;;;3.50;0.65;;;3.60;99.90;;;;;;6146617;23;20026;-90
2023/11/25 06:41:03;;;;;;;4.30;0.60;;;3.60;99.90;;;;;;6139177;23;20044;-90
2023/11/25 06:43:30;;;;;;;3.22;0.40;;;3.60;99.90;;;;;;6138652;23;20021;-91
2023/11/25 06:45:59;;;;;;;2.78;0.30;;;3.60;99.90;;;;;;6162110;23;20020;-91
2023/11/25 06:48:34;;;;;;;3.03;0.40;;;3.60;99.90;;;;;;6162582;23;20349;-91
2023/11/25 06:51:01;;;;;;;2.38;0.30;;;3.60;99.90;;;;;;6137719;23;20017;-90
2023/11/25 06:53:31;;;;;;;1.98;0.50;;;3.70;99.90;;;;;;6162283;23;20017;-91
2023/11/25 06:55:58;;;;;;;2.30;0.63;;;3.80;99.90;;;;;;6162744;23;20037;-91
2023/11/25 06:58:25;;;;;;;1.35;0.20;;;3.90;99.90;;;;;;6097254;23;20021;-91
2023/11/25 07:00:57;;;;;;;1.90;0.22;;;3.90;99.90;;;;;;6126725;23;20025;-91
2023/11/25 07:03:24;;;;;;;2.78;0.35;;;4.00;99.90;;;;;;6122227;23;20017;-91
2023/11/25 07:05:54;;;;;;;4.95;0.75;;;4.00;99.90;;;;;;6132467;23;20021;-91
2023/11/25 07:08:21;;;;;;;2.63;0.20;;;4.00;99.90;;;;;;6162376;23;20028;-91
2023/11/25 07:10:54;;;;;;;4.45;0.30;;;4.00;99.90;;;;;;6137675;23;20021;-91
2023/11/25 07:13:24;;;;;;;2.40;0.30;;;4.10;99.90;;;;;;6138091;23;20027;-91
2023/11/25 07:15:51;;;;;;;2.72;0.45;;;4.20;99.90;;;;;;6138223;23;20033;-90
2023/11/25 07:18:22;;;;;;;2.47;0.30;;;4.10;99.90;;;;;;6144049;23;20025;-90
2023/11/25 07:20:50;;;;;;;1.58;0.38;;;4.10;99.90;;;;;;6174036;23;20462;-90
2023/11/25 07:23:22;;;;;;;1.70;0.43;;;4.10;99.90;;;;;;6183924;23;20104;-91
2023/11/25 07:25:56;;;;;;;1.90;0.30;;;4.10;99.90;;;;;;6193062;23;20714;-91
2023/11/25 07:28:24;;;;;;;2.75;0.55;;;4.10;99.90;;;;;;6168338;23;20017;-91
2023/11/25 07:30:54;;;;;;;2.35;0.32;;;4.10;99.90;;;;;;6168336;23;20044;-91
2023/11/25 07:33:21;;;;;;;7.88;0.57;;;4.10;99.90;;;;;;6168389;23;20021;-90
2023/11/25 07:35:52;;;;;;;4.03;0.40;;;4.10;99.90;;;;;;6191779;23;20051;-91
2023/11/25 07:38:21;;;;;;;6.55;0.60;;;4.10;99.90;;;;;;6192051;23;20032;-90
2023/11/25 07:40:49;;;;;;;7.22;0.40;;;4.10;99.90;;;;;;6191848;23;20027;-91
2023/11/25 07:43:20;;;;;;;3.08;0.30;;;4.10;99.90;;;;;;6193101;23;20335;-91
2023/11/25 07:45:56;;;;;;;7.65;0.98;;;4.10;99.90;;;;;;6167185;23;20439;-92
2023/11/25 07:48:23;;;;;;;3.53;0.40;;;4.10;99.90;;;;;;6191190;23;20023;-90
2023/11/25 07:50:51;;;;;;;4.32;0.32;;;4.10;99.90;;;;;;6191866;23;20021;-91
2023/11/25 07:53:24;;;;;;;4.20;0.50;;;4.20;99.90;;;;;;6166837;23;20450;-91
2023/11/25 07:55:52;;;;;;;2.30;0.22;;;4.20;99.90;;;;;;6191096;23;20107;-91
2023/11/25 07:58:22;;;;;;;3.55;0.40;;;4.20;99.90;;;;;;6166553;23;20029;-91
2023/11/25 08:00:50;;;;;;;2.45;0.40;;;4.20;99.90;;;;;;6142725;23;20024;-91
2023/11/25 08:03:17;;;;;;;1.77;0.32;;;4.20;99.90;;;;;;6142122;23;20075;-90
2023/11/25 08:05:44;;;;;;;3.25;0.57;;;4.20;99.90;;;;;;6166593;23;20016;-89
2023/11/25 08:08:11;;;;;;;3.22;0.40;;;4.30;99.90;;;;;;6141965;23;20021;-90
2023/11/25 08:10:51;;;;;;;2.22;0.45;;;4.40;99.90;;;;;;6167411;23;20017;-90
2023/11/25 08:13:21;;;;;;;2.15;0.30;;;4.50;99.90;;;;;;6191050;23;20020;-90
2023/11/25 08:15:52;;;;;;;2.00;0.52;;;4.50;99.90;;;;;;6190995;23;20025;-92
2023/11/25 08:18:19;;;;;;;1.40;0.20;;;4.50;99.90;;;;;;6191076;23;20025;-92
2023/11/25 08:20:47;;;;;;;2.28;0.40;;;4.50;99.90;;;;;;6166586;23;20099;-93
2023/11/25 08:23:24;;;;;;;1.40;0.30;;;4.50;99.90;;;;;;6191201;23;20136;-91
2023/11/25 08:25:58;;;;;;;6.57;0.45;;;4.60;99.90;;;;;;6190734;23;20044;-88
2023/11/25 08:28:27;;;;;;;2.80;0.45;;;4.60;99.90;;;;;;6142340;23;20021;-91
2023/11/25 08:30:59;;;;;;;1.77;0.45;;;4.60;99.90;;;;;;6190734;23;20067;-89
2023/11/25 08:33:26;;;;;;;;;;;4.50;99.90;;;;;;6167192;23;20021;-90
2023/11/25 08:35:53;;;;;;;1.70;0.40;;;4.40;99.90;;;;;;6190956;23;20289;-90
2023/11/25 08:38:21;;;;;;;1.60;0.77;;;4.50;99.90;;;;;;6141780;23;20031;-88
2023/11/25 08:40:52;;;;;;;2.97;0.40;;;4.40;99.90;;;;;;6166120;23;20024;-89
2023/11/25 08:43:20;;;;;;;1.17;0.30;;;4.50;99.90;;;;;;6165986;23;20071;-89
2023/11/25 08:45:48;;;;;;;3.40;0.32;;;4.50;99.90;;;;;;6165825;23;20099;-90
2023/11/25 08:48:15;;;;;;;3.92;0.30;;;4.50;99.90;;;;;;6141869;23;20394;-91
2023/11/25 08:50:43;;;;;;;2.90;0.32;;;4.50;99.90;;;;;;6166190;23;20351;-91
2023/11/25 08:53:10;;;;;;;5.78;0.50;;;4.60;99.90;;;;;;6190352;23;20047;-90
2023/11/25 08:55:38;;;;;;;3.35;0.25;;;4.60;99.90;;;;;;6190838;23;20017;-90
2023/11/25 08:58:07;;;;;;;5.63;0.50;;;4.70;99.90;;;;;;6190326;23;20099;-90
2023/11/25 09:00:34;;;;;;;3.45;0.38;;;4.80;99.90;;;;;;6141864;23;20068;-92
2023/11/25 09:03:07;;;;;;;1.50;0.30;;;4.80;99.90;;;;;;6141661;23;20751;-91
2023/11/25 09:05:36;;;;;;;1.40;0.30;;;4.90;99.90;;;;;;6142842;23;20462;-90
2023/11/25 09:08:06;;;;;;;1.50;0.20;;;4.80;99.90;;;;;;6165504;23;20028;-85
2023/11/25 09:10:34;;;;;;;1.65;0.30;;;4.90;99.90;;;;;;6190406;23;20020;-91
2023/11/25 09:13:02;;;;;;;0.93;0.17;;;4.90;99.90;;;;;;6190710;23;20016;-91
2023/11/25 09:15:29;;;;;;;2.63;0.28;;;4.90;99.90;;;;;;6189602;23;20029;-85
2023/11/25 09:18:08;;;;;;;1.98;0.22;;;4.90;99.90;;;;;;6190171;23;20395;-91
2023/11/25 09:20:35;;;;;;;2.97;0.20;;;5.00;99.90;;;;;;6160171;23;20419;-91
2023/11/25 09:23:02;;;;;;;3.65;0.20;;;5.10;99.90;;;;;;6160658;23;20071;-85
2023/11/25 09:25:31;;;;;;;1.90;0.30;;;5.30;99.90;;;;;;6160386;23;20380;-92
2023/11/25 09:28:01;;;;;;;4.38;0.30;;;5.50;99.90;;;;;;6161375;23;20017;-91
2023/11/25 09:30:28;;;;;;;5.00;0.30;;;5.60;99.90;;;;;;6160287;23;20377;-92
2023/11/25 09:32:55;;;;;;;1.90;0.50;;;5.80;99.90;;;;;;6136468;23;20028;-92
2023/11/25 09:35:23;;;;;;;6.13;0.50;;;5.80;99.90;;;;;;6160461;23;20028;-91
2023/11/25 09:37:52;;;;;;;4.40;0.35;;;5.80;99.90;;;;;;6136166;23;20108;-91
2023/11/25 09:40:21;;;;;;;4.25;0.80;;;5.80;99.90;;;;;;6159875;23;20021;-85
2023/11/25 09:42:50;;;;;;;2.05;0.30;;;5.80;99.90;;;;;;6135088;23;20031;-84
2023/11/25 09:45:28;;;;;;;5.88;0.55;;;5.80;99.90;;;;;;6160189;23;20025;-85
2023/11/25 09:47:55;;;;;;;2.50;0.30;;;5.80;99.90;;;;;;6136511;23;20072;-91
2023/11/25 09:50:23;;;;;;;4.00;0.60;;;5.70;99.90;;;;;;6160622;23;20021;-85
2023/11/25 09:52:58;;;;;;;2.42;0.60;;;5.70;99.90;;;;;;6160325;23;20017;-89
2023/11/25 09:55:30;;;;;;;2.33;0.43;;;5.70;99.90;;;;;;6095106;23;20022;-89
2023/11/25 09:58:17;;;;;;;;;;;;;;;;;;;;;
2023/11/25 10:00:57;;;;;;;3.78;0.30;;;5.70;99.90;;;;;;6119147;23;20017;-86
2023/11/25 10:03:31;;;;;;;2.35;0.30;;;5.70;99.90;;;;;;6111542;23;20789;-85
2023/11/25 10:05:58;;;;;;;3.53;0.50;;;5.80;99.90;;;;;;6135142;23;20036;-84
2023/11/25 10:08:28;;;;;;;2.75;0.40;;;5.80;99.90;;;;;;6160110;23;20017;-88
2023/11/25 10:11:00;;;;;;;3.28;0.50;;;5.90;99.90;;;;;;6135363;23;20021;-85
2023/11/25 10:13:35;;;;;;;4.00;0.50;;;5.90;99.90;;;;;;6160246;23;20069;-86
2023/11/25 10:16:03;;;;;;;4.40;1.15;;;6.00;99.90;;;;;;6135486;23;20025;-85
2023/11/25 10:18:31;;;;;;;4.85;0.57;;;6.20;99.90;;;;;;6111249;23;20103;-85
2023/11/25 10:20:58;;;;;;;6.38;0.50;;;6.30;99.90;;;;;;6155817;23;20052;-84
2023/11/25 10:23:26;;;;;;;4.80;0.80;;;6.40;99.90;;;;;;6123485;23;20021;-86
2023/11/25 10:25:58;;;;;;;2.63;0.60;;;6.40;99.90;;;;;;6130062;23;20022;-83
2023/11/25 10:28:26;;;;;;;7.20;1.10;;;6.50;99.90;;;;;;6147843;23;20329;-87
2023/11/25 10:30:56;;;;;;;6.63;0.90;;;6.40;99.90;;;;;;6105780;23;20017;-85
2023/11/25 10:33:24;;;;;;;3.65;0.80;;;6.40;99.90;;;;;;6147713;23;20458;-86
2023/11/25 10:35:52;;;;;;;3.88;0.70;;;6.30;99.90;;;;;;6159593;23;20447;-84
2023/11/25 10:38:21;;;;;;;6.50;0.95;;;6.40;99.90;;;;;;6134859;23;20519;-84
2023/11/25 10:40:49;;;;;;;6.38;1.23;;;6.40;99.90;;;;;;6134816;23;20025;-83
2023/11/25 10:43:20;;;;;;;7.30;1.30;;;6.40;99.90;;;;;;6110188;23;20031;-84
2023/11/25 10:46:02;;;;;;;5.80;0.63;;;6.40;99.90;;;;;;6159995;23;20335;-83
2023/11/25 10:48:30;;;;;;;9.23;0.80;;;6.40;99.90;;;;;;6159820;23;20454;-90
2023/11/25 10:50:58;;;;;;;8.75;1.10;;;6.50;99.90;;;;;;6135465;23;20112;-87
2023/11/25 10:53:30;;;;;;;7.95;1.50;;;6.60;99.90;;;;;;6106509;23;20028;-87
2023/11/25 10:55:59;;;;;;;12.48;1.65;;;6.80;99.90;;;;;;6155257;23;20028;-91
2023/11/25 10:58:47;;;;;;;6.45;1.08;;;7.00;99.90;;;;;;6135802;23;20099;-89
2023/11/25 11:01:15;;;;;;;6.55;0.82;;;7.30;99.80;;;;;;6111551;23;20451;-91
2023/11/25 11:03:59;;;;;;;7.10;2.00;;;7.40;99.60;;;;;;6140413;23;20017;-88
2023/11/25 11:06:29;;;;;;;7.63;1.38;;;7.40;99.40;;;;;;6163965;23;20348;-86
2023/11/25 11:09:03;;;;;;;8.15;1.30;;;7.20;99.50;;;;;;6147082;23;20040;-87
2023/11/25 11:11:47;;;;;;;6.40;0.85;;;7.10;99.60;;;;;;6167025;23;20439;-88
2023/11/25 11:14:22;;;;;;;6.20;0.70;;;6.90;99.80;;;;;;6138614;23;20040;-88
2023/11/25 11:16:59;;;;;;;5.65;1.25;;;6.80;99.80;;;;;;6137941;23;20024;-87
2023/11/25 11:19:35;;;;;;;4.82;0.90;;;6.60;99.90;;;;;;6164005;23;20052;-88
2023/11/25 11:22:08;;;;;;;4.88;0.90;;;6.60;99.90;;;;;;6162991;23;20103;-87
2023/11/25 11:25:08;;;;;;;9.70;1.05;;;6.70;99.90;;;;;;6191287;23;20028;-86
2023/11/25 11:27:55;;;;;;;6.85;0.80;;;6.80;99.90;;;;;;6191754;23;20028;-87
2023/11/25 11:30:50;;;;;;;6.55;1.20;;;6.80;99.90;;;;;;6166693;23;20013;-87
2023/11/25 11:33:21;;;;;;;5.78;0.82;;;6.80;99.90;;;;;;6191351;23;20435;-86
2023/11/25 11:35:49;;;;;;;3.85;1.15;;;6.80;99.90;;;;;;6166753;23;20025;-89
2023/11/25 11:38:28;;;;;;;7.18;0.82;;;6.90;99.90;;;;;;6190901;23;20391;-89
2023/11/25 11:41:00;;;;;;;9.30;0.80;;;7.00;99.90;;;;;;6166966;23;20030;-86
2023/11/25 11:43:30;;;;;;;5.80;0.70;;;7.00;99.60;;;;;;6167080;23;20443;-86
2023/11/25 11:46:00;;;;;;;7.07;1.27;;;7.00;99.50;;;;;;6190890;23;20023;-87
2023/11/25 11:48:30;;;;;;;6.25;0.70;;;7.00;99.60;;;;;;6142317;23;20103;-88
2023/11/25 11:50:58;;;;;;;6.07;1.10;;;7.00;99.60;;;;;;6191158;23;20020;-90
2023/11/25 11:53:28;;;;;;;7.05;0.50;;;7.00;99.60;;;;;;6191467;23;20020;-87
2023/11/25 11:55:58;;;;;;;7.72;0.70;;;7.00;99.60;;;;;;6167120;23;20020;-90
2023/11/25 11:58:27;;;;;;;5.45;0.70;;;7.10;99.60;;;;;;6166321;23;20052;-86
2023/11/25 12:01:01;;;;;;;5.72;0.77;;;7.30;99.60;;;;;;6191428;23;20044;-90
2023/11/25 12:03:41;;;;;;;5.88;1.48;;;7.50;99.30;;;;;;6166613;23;20052;-90
2023/11/25 12:07:25;;;;;;;6.40;0.85;;;7.60;99.10;;;;;;6199061;23;20023;-90
2023/11/25 12:09:55;;;;;;;6.80;0.60;;;7.70;98.60;;;;;;6190201;23;20514;-89
2023/11/25 12:12:23;;;;;;;5.78;0.55;;;7.80;98.50;;;;;;6165648;23;20339;-84
2023/11/25 12:14:50;;;;;;;7.47;1.02;;;8.00;98.50;;;;;;6165596;23;20029;-88
2023/11/25 12:17:24;;;;;;;5.65;0.75;;;8.10;98.30;;;;;;6190814;23;20099;-88
2023/11/25 12:19:55;;;;;;;3.75;0.40;;;8.10;98.20;;;;;;6190597;23;20025;-88
2023/11/25 12:22:22;;;;;;;3.95;0.55;;;8.00;98.40;;;;;;6141954;23;20442;-90
2023/11/25 12:24:49;;;;;;;8.35;0.80;;;8.00;98.40;;;;;;6165866;23;20111;-89
2023/11/25 12:27:21;;;;;;;5.80;0.82;;;7.90;98.50;;;;;;6190491;23;20016;-87
2023/11/25 12:29:49;;;;;;;3.03;0.45;;;7.90;98.60;;;;;;6142058;23;20505;-90
2023/11/25 12:32:17;;;;;;;4.30;0.93;;;7.80;98.70;;;;;;6166459;23;20036;-87
2023/11/25 12:34:47;;;;;;;3.63;0.50;;;7.60;98.60;;;;;;6191102;23;20447;-88
2023/11/25 12:37:16;;;;;;;3.85;0.40;;;7.30;98.90;;;;;;6165814;23;20016;-88
2023/11/25 12:39:43;;;;;;;2.15;0.35;;;7.10;99.30;;;;;;6184322;23;20024;-89
2023/11/25 12:42:11;;;;;;;8.65;0.50;;;7.10;99.60;;;;;;6159616;23;20125;-90
2023/11/25 12:44:53;;;;;;;3.33;0.40;;;7.10;99.80;;;;;;6159826;23;20021;-90
2023/11/25 12:47:29;;;;;;;7.40;1.08;;;7.10;99.80;;;;;;6159895;23;20479;-91
2023/11/25 12:50:06;;;;;;;4.95;1.00;;;7.30;99.80;;;;;;6135333;23;20455;-90
2023/11/25 12:52:34;;;;;;;5.40;1.02;;;7.40;99.70;;;;;;6135278;23;20020;-89
2023/11/25 12:55:02;;;;;;;6.35;1.05;;;7.50;99.50;;;;;;6135286;23;20471;-87
2023/11/25 12:57:37;;;;;;;6.95;1.08;;;7.60;99.40;;;;;;6159642;23;20104;-89
2023/11/25 13:00:09;;;;;;;8.88;1.33;;;7.60;99.20;;;;;;6135083;23;20494;-90
2023/11/25 13:02:43;;;;;;;9.52;1.02;;;7.50;99.00;;;;;;6111434;23;20025;-90
2023/11/25 13:05:17;;;;;;;7.60;0.93;;;7.40;99.00;;;;;;6136780;23;20100;-91
2023/11/25 13:07:45;;;;;;;4.25;0.63;;;7.20;99.20;;;;;;6159616;23;20021;-89
2023/11/25 13:10:12;;;;;;;4.85;0.50;;;7.10;99.30;;;;;;6143588;23;20017;-91
2023/11/25 13:12:42;;;;;;;6.53;0.93;;;7.00;99.50;;;;;;6141385;23;20021;-86